Terminal Aerodrome Forecast
Issued by NWS Omaha/Valley, NE

Home | Current Version | Previous Version | Text Only | Print | Product List | Glossary On
Versions: 1 2 3 4 5 6 7 8 9 10 11 12 13 14 15 16 17 18 19 20 21 22 23 24 25 26 27 28 29 30 31 32 33 34 35 36 37 38 39 40
000
FTUS43 KOAX 162002 AAA
TAFOMA
TAF AMD
KOMA 162002Z 1620/1718 35008KT 1SM -RA BR OVC004
     FM162200 02008KT 1SM -DZ BR OVC004
     FM170600 33011KT P6SM OVC008
     FM171500 33008KT 5SM BR OVC025=

USA.gov is the U.S. government's official web portal to all federal, state and local government web resources and services.